createdAt,value
2018-02-23T00:02:06.821Z,40.10
2018-02-23T00:04:35.098Z,40.10
2018-02-23T00:07:03.357Z,40.20
2018-02-23T00:09:31.601Z,40.30
2018-02-23T00:11:59.882Z,40.20
2018-02-23T00:14:28.122Z,40.30
2018-02-23T00:16:57.148Z,40.30
2018-02-23T00:19:25.391Z,40.20
2018-02-23T00:21:53.701Z,40.10
2018-02-23T00:24:21.951Z,40.30
2018-02-23T00:26:50.999Z,40.30
2018-02-23T00:29:19.325Z,40.30
2018-02-23T00:31:47.556Z,40.40
2018-02-23T00:34:15.841Z,40.50
2018-02-23T00:36:44.074Z,40.50
2018-02-23T00:39:12.407Z,40.40
2018-02-23T00:41:40.693Z,40.50
2018-02-23T00:44:08.980Z,40.60
2018-02-23T00:46:37.274Z,40.40
2018-02-23T00:49:06.330Z,40.60
2018-02-23T00:51:34.625Z,40.50
2018-02-23T00:54:02.909Z,40.40
2018-02-23T00:56:31.197Z,40.60
2018-02-23T00:59:00.226Z,40.70
2018-02-23T01:01:28.493Z,40.70
2018-02-23T01:03:56.785Z,40.60
2018-02-23T01:06:25.089Z,40.70
2018-02-23T01:08:54.189Z,40.90
2018-02-23T01:11:22.434Z,41.20
2018-02-23T01:13:50.696Z,40.70
2018-02-23T01:16:18.950Z,40.60
2018-02-23T01:18:47.980Z,40.90
2018-02-23T01:21:16.285Z,40.70
2018-02-23T01:23:44.562Z,40.60
2018-02-23T01:26:12.806Z,40.80
2018-02-23T01:28:41.102Z,40.70
2018-02-23T01:31:09.386Z,40.90
2018-02-23T01:33:37.674Z,40.70
2018-02-23T01:36:05.978Z,40.90
2018-02-23T01:38:34.267Z,40.80
2018-02-23T01:41:03.371Z,40.90
2018-02-23T01:43:32.423Z,40.90
2018-02-23T01:46:00.666Z,40.90
2018-02-23T01:48:28.932Z,41.00
2018-02-23T01:51:01.108Z,40.90
2018-02-23T01:53:29.363Z,40.80
2018-02-23T01:55:57.657Z,41.00
2018-02-23T01:58:25.977Z,41.10
2018-02-23T02:00:54.258Z,41.10
2018-02-23T02:03:22.570Z,41.10
2018-02-23T02:05:51.661Z,41.40
2018-02-23T02:08:20.727Z,41.30
2018-02-23T02:10:49.033Z,41.20
2018-02-23T02:13:18.056Z,41.40
2018-02-23T02:15:46.357Z,41.30
2018-02-23T02:18:14.603Z,41.40
2018-02-23T02:20:42.901Z,41.30
2018-02-23T02:23:11.150Z,41.30
2018-02-23T02:25:39.415Z,41.60
2018-02-23T02:28:08.481Z,41.50
2018-02-23T02:30:36.768Z,41.50
2018-02-23T02:33:05.039Z,41.50
2018-02-23T02:35:33.325Z,41.70
2018-02-23T02:38:01.632Z,41.60
2018-02-23T02:40:30.673Z,41.50
2018-02-23T02:42:59.032Z,41.50
2018-02-23T02:45:27.295Z,41.60
2018-02-23T02:47:55.592Z,41.80
2018-02-23T02:50:23.861Z,41.90
2018-02-23T02:52:52.177Z,41.60
2018-02-23T02:55:20.465Z,42.10
2018-02-23T02:57:48.710Z,42.20
2018-02-23T03:00:17.048Z,41.80
2018-02-23T03:02:45.311Z,41.90
2018-02-23T03:05:14.331Z,41.80
2018-02-23T03:07:42.641Z,41.80
2018-02-23T03:10:10.929Z,42.20
2018-02-23T03:12:39.193Z,42.10
2018-02-23T03:15:07.455Z,41.90
2018-02-23T03:17:35.777Z,41.80
2018-02-23T03:20:04.078Z,41.90
2018-02-23T03:22:33.166Z,42.10
2018-02-23T03:25:02.218Z,42.10
2018-02-23T03:27:30.498Z,42.10
2018-02-23T03:29:58.806Z,42.20
2018-02-23T03:32:27.109Z,42.30
2018-02-23T03:34:55.394Z,42.30
2018-02-23T03:37:23.636Z,42.10
2018-02-23T03:39:52.665Z,43.10
2018-02-23T03:42:20.924Z,42.70
2018-02-23T03:44:49.977Z,42.70
2018-02-23T03:47:18.276Z,42.60
2018-02-23T03:49:46.520Z,42.40
2018-02-23T03:52:14.792Z,42.60
2018-02-23T03:54:43.091Z,42.50
2018-02-23T03:57:11.413Z,42.80
2018-02-23T03:59:40.423Z,42.90
2018-02-23T04:02:08.690Z,42.90
2018-02-23T04:04:36.947Z,43.20
2018-02-23T04:07:06.015Z,42.50
2018-02-23T04:09:34.304Z,42.50
2018-02-23T04:12:02.557Z,42.90
2018-02-23T04:14:30.839Z,42.90
2018-02-23T04:16:59.097Z,43.00
2018-02-23T04:19:27.412Z,43.10
2018-02-23T04:21:55.672Z,42.70
2018-02-23T04:24:23.934Z,43.70
2018-02-23T04:26:52.226Z,42.60
2018-02-23T04:29:20.613Z,42.90
2018-02-23T04:31:48.915Z,42.60
2018-02-23T04:34:17.977Z,42.90
2018-02-23T04:36:46.248Z,42.70
2018-02-23T04:39:14.520Z,43.30
2018-02-23T04:41:43.022Z,43.20
2018-02-23T04:44:11.294Z,43.30
2018-02-23T04:46:39.592Z,43.20
2018-02-23T04:49:07.850Z,42.90
2018-02-23T04:51:36.140Z,43.20
2018-02-23T04:54:04.437Z,43.40
2018-02-23T04:56:33.449Z,42.90
2018-02-23T04:59:01.797Z,42.90
2018-02-23T05:01:30.075Z,43.20
2018-02-23T05:03:59.151Z,43.10
2018-02-23T05:06:27.453Z,43.10
2018-02-23T05:08:56.467Z,43.30
2018-02-23T05:11:24.844Z,43.30
2018-02-23T05:13:53.855Z,43.50
2018-02-23T05:16:22.176Z,43.60
2018-02-23T05:18:50.459Z,43.80
2018-02-23T05:21:18.766Z,43.70
2018-02-23T05:23:47.818Z,43.70
2018-02-23T05:26:16.075Z,43.60
2018-02-23T05:28:44.388Z,43.90
2018-02-23T05:31:12.641Z,44.10
2018-02-23T05:33:40.974Z,44.10
2018-02-23T05:36:10.047Z,44.00
2018-02-23T05:38:38.333Z,44.00
2018-02-23T05:41:07.378Z,44.10
2018-02-23T05:43:38.486Z,44.10
2018-02-23T05:46:07.536Z,44.30
2018-02-23T05:48:35.798Z,44.30
2018-02-23T05:51:04.101Z,44.40
2018-02-23T05:53:32.376Z,44.20
2018-02-23T05:56:00.684Z,44.40
2018-02-23T05:58:29.720Z,44.90
2018-02-23T06:00:57.971Z,44.80
2018-02-23T06:03:26.280Z,44.60
2018-02-23T06:05:54.548Z,44.20
2018-02-23T06:08:22.813Z,44.80
2018-02-23T06:10:51.115Z,44.70
2018-02-23T06:13:19.423Z,44.30
2018-02-23T06:15:53.378Z,44.90
2018-02-23T06:18:27.217Z,44.70
2018-02-23T06:20:55.547Z,44.70
2018-02-23T06:23:24.603Z,44.80
2018-02-23T06:25:52.919Z,44.80
2018-02-23T06:28:21.212Z,44.90
2018-02-23T06:30:49.463Z,44.80
2018-02-23T06:33:18.527Z,44.90
2018-02-23T06:35:46.796Z,44.90
2018-02-23T06:38:15.120Z,45.20
2018-02-23T06:40:44.177Z,45.20
2018-02-23T06:43:12.478Z,45.10
2018-02-23T06:45:41.534Z,44.80
2018-02-23T06:48:09.827Z,44.80
2018-02-23T06:50:38.051Z,45.10
2018-02-23T06:53:06.302Z,45.10
2018-02-23T06:55:35.373Z,45.10
2018-02-23T06:58:03.623Z,45.00
2018-02-23T07:00:31.961Z,45.70
2018-02-23T07:03:00.978Z,45.10
2018-02-23T07:05:29.242Z,45.10
2018-02-23T07:07:57.522Z,45.10
2018-02-23T07:10:25.798Z,45.10
2018-02-23T07:12:54.881Z,45.00
2018-02-23T07:15:23.215Z,45.00
2018-02-23T07:17:51.553Z,45.20
2018-02-23T07:20:20.610Z,44.90
2018-02-23T07:22:48.870Z,44.90
2018-02-23T07:25:17.185Z,44.80
2018-02-23T07:27:45.476Z,44.80
2018-02-23T07:30:14.498Z,44.80
2018-02-23T07:32:42.764Z,44.70
2018-02-23T07:35:11.308Z,44.80
2018-02-23T07:37:39.600Z,44.70
2018-02-23T07:40:08.678Z,44.80
2018-02-23T07:42:36.983Z,44.80
2018-02-23T07:45:06.071Z,45.00
2018-02-23T07:47:34.378Z,45.00
2018-02-23T07:50:02.661Z,44.70
2018-02-23T07:52:30.920Z,45.40
2018-02-23T07:54:59.252Z,45.70
2018-02-23T07:57:27.508Z,45.30
2018-02-23T07:59:55.847Z,45.50
2018-02-23T08:02:24.906Z,45.00
2018-02-23T08:04:53.187Z,45.00
2018-02-23T08:07:21.483Z,44.90
2018-02-23T08:09:50.512Z,45.70
2018-02-23T08:12:18.760Z,45.10
2018-02-23T08:14:47.876Z,44.90
2018-02-23T08:17:16.134Z,44.90
2018-02-23T08:19:45.180Z,44.70
2018-02-23T08:22:13.429Z,44.60
2018-02-23T08:24:41.686Z,44.80
2018-02-23T08:27:10.750Z,45.00
2018-02-23T08:29:38.990Z,44.90
2018-02-23T08:32:07.294Z,44.80
2018-02-23T08:34:35.587Z,45.30
2018-02-23T08:37:03.859Z,44.60
2018-02-23T08:39:32.154Z,44.70
2018-02-23T08:42:01.259Z,44.90
2018-02-23T08:44:30.289Z,44.80
2018-02-23T08:46:58.537Z,44.80
2018-02-23T08:49:27.600Z,44.70
2018-02-23T08:51:55.833Z,44.70
2018-02-23T08:54:24.661Z,44.80
2018-02-23T08:56:52.913Z,44.70
2018-02-23T08:59:21.189Z,44.70
2018-02-23T09:01:49.485Z,44.80
2018-02-23T09:04:17.732Z,44.70
2018-02-23T09:06:46.026Z,44.60
2018-02-23T09:09:14.312Z,44.60
2018-02-23T09:11:42.596Z,44.60
2018-02-23T09:14:10.827Z,44.50
2018-02-23T09:16:39.115Z,44.30
2018-02-23T09:19:07.411Z,44.50
2018-02-23T09:21:35.750Z,44.40
2018-02-23T09:24:04.035Z,44.40
2018-02-23T09:26:33.077Z,44.10
2018-02-23T09:29:01.357Z,44.10
2018-02-23T09:31:29.653Z,44.20
2018-02-23T09:34:09.818Z,44.20
2018-02-23T09:36:38.077Z,44.30
2018-02-23T09:39:06.348Z,43.80
2018-02-23T09:41:34.661Z,43.90
2018-02-23T09:44:03.673Z,43.80
2018-02-23T09:46:32.029Z,43.80
2018-02-23T09:49:01.071Z,43.80
2018-02-23T09:51:29.943Z,43.80
2018-02-23T09:53:58.249Z,43.50
2018-02-23T09:56:27.288Z,42.90
2018-02-23T09:58:56.372Z,43.20
2018-02-23T10:01:24.660Z,43.10
2018-02-23T10:03:53.726Z,42.80
2018-02-23T10:06:21.979Z,42.80
2018-02-23T10:08:50.235Z,42.80
2018-02-23T10:11:18.489Z,42.40
2018-02-23T10:13:47.553Z,43.10
2018-02-23T10:16:15.873Z,43.10
2018-02-23T10:18:44.931Z,42.80
2018-02-23T10:21:13.244Z,42.80
2018-02-23T10:23:42.311Z,42.60
2018-02-23T10:26:10.555Z,42.50
2018-02-23T10:28:38.865Z,43.00
2018-02-23T10:31:07.085Z,42.60
2018-02-23T10:33:35.370Z,42.70
2018-02-23T10:36:03.673Z,43.10
2018-02-23T10:38:31.945Z,43.30
2018-02-23T10:41:00.260Z,42.50
2018-02-23T10:43:28.528Z,43.00
2018-02-23T10:45:56.765Z,42.30
2018-02-23T10:48:25.068Z,42.70
2018-02-23T10:50:53.339Z,43.60
2018-02-23T10:53:21.543Z,42.60
2018-02-23T10:55:50.585Z,43.00
2018-02-23T10:58:18.892Z,42.50
2018-02-23T11:00:47.131Z,41.60
2018-02-23T11:03:15.360Z,41.70
2018-02-23T11:05:43.658Z,42.10
2018-02-23T11:08:12.661Z,41.50
2018-02-23T11:10:40.976Z,41.50
2018-02-23T11:13:09.251Z,41.10
2018-02-23T11:15:37.529Z,40.70
2018-02-23T11:18:05.776Z,41.90
2018-02-23T11:20:34.072Z,41.90
2018-02-23T11:23:02.346Z,41.40
2018-02-23T11:25:30.625Z,41.20
2018-02-23T11:27:58.909Z,41.20
2018-02-23T11:30:27.156Z,41.40
2018-02-23T11:32:55.416Z,41.90
2018-02-23T11:35:24.485Z,41.80
2018-02-23T11:37:52.761Z,41.80
2018-02-23T11:40:21.060Z,40.90
2018-02-23T11:42:49.290Z,41.90
2018-02-23T11:45:17.558Z,41.80
2018-02-23T11:47:45.840Z,42.00
2018-02-23T11:50:14.077Z,40.60
2018-02-23T11:52:43.139Z,40.60
2018-02-23T11:55:11.376Z,40.50
2018-02-23T11:57:50.368Z,39.30
2018-02-23T12:00:19.434Z,38.20
2018-02-23T12:02:47.670Z,38.20
2018-02-23T12:05:15.926Z,39.00
2018-02-23T12:07:44.975Z,39.00
2018-02-23T12:10:13.254Z,39.00
2018-02-23T12:12:41.529Z,38.70
2018-02-23T12:15:09.804Z,38.60
2018-02-23T12:17:38.079Z,36.30
2018-02-23T12:20:07.072Z,35.70
2018-02-23T12:22:36.122Z,36.60
2018-02-23T12:25:05.177Z,36.30
2018-02-23T12:27:33.432Z,36.40
2018-02-23T12:30:01.668Z,36.60
2018-02-23T12:32:30.765Z,32.20
2018-02-23T12:34:59.816Z,32.50
2018-02-23T12:37:28.107Z,32.40
2018-02-23T12:39:56.395Z,38.10
2018-02-23T12:42:24.638Z,35.00
2018-02-23T12:44:53.707Z,38.10
2018-02-23T12:47:21.951Z,38.10
2018-02-23T12:49:50.990Z,37.20
2018-02-23T12:52:19.269Z,37.00
2018-02-23T12:54:47.549Z,36.90
2018-02-23T12:57:15.838Z,33.80
2018-02-23T12:59:44.146Z,36.20
2018-02-23T13:02:12.394Z,38.50
2018-02-23T13:04:40.629Z,35.40
2018-02-23T13:07:08.913Z,33.50
2018-02-23T13:09:37.205Z,36.60
2018-02-23T13:12:05.507Z,35.50
2018-02-23T13:14:39.721Z,36.40
2018-02-23T13:17:08.012Z,37.60
2018-02-23T13:19:36.326Z,30.80
2018-02-23T13:22:05.348Z,33.50
2018-02-23T13:24:33.663Z,33.60
2018-02-23T13:27:07.553Z,35.20
2018-02-23T13:29:35.840Z,30.00
2018-02-23T13:32:04.138Z,36.00
2018-02-23T13:34:32.434Z,34.40
2018-02-23T13:37:01.456Z,34.10
2018-02-23T13:39:29.744Z,34.10
2018-02-23T13:41:58.050Z,31.60
2018-02-23T13:44:26.293Z,34.00
2018-02-23T13:46:54.617Z,34.00
2018-02-23T13:49:22.879Z,31.90
2018-02-23T13:51:51.224Z,30.60
2018-02-23T13:54:21.295Z,33.00
2018-02-23T13:56:49.592Z,32.80
2018-02-23T13:59:18.688Z,31.90
2018-02-23T14:01:47.707Z,32.00
2018-02-23T14:04:16.038Z,32.00
2018-02-23T14:06:48.147Z,31.90
2018-02-23T14:09:16.427Z,30.30
2018-02-23T14:11:44.661Z,29.40
2018-02-23T14:14:12.908Z,31.20
2018-02-23T14:16:41.172Z,30.00
2018-02-23T14:19:09.414Z,30.50
2018-02-23T14:21:38.437Z,30.10
2018-02-23T14:24:06.720Z,30.10
2018-02-23T14:26:35.041Z,28.30
2018-02-23T14:29:03.322Z,28.80
2018-02-23T14:31:31.577Z,30.00
2018-02-23T14:33:59.836Z,28.90
2018-02-23T14:36:28.128Z,28.50
2018-02-23T14:38:56.386Z,28.20
2018-02-23T14:41:24.672Z,28.90
2018-02-23T14:43:52.949Z,28.60
2018-02-23T14:46:21.192Z,28.80
2018-02-23T14:49:01.403Z,27.80
2018-02-23T14:51:29.675Z,27.90
2018-02-23T14:53:57.957Z,27.80
2018-02-23T14:56:26.260Z,27.50
2018-02-23T14:58:55.304Z,28.60
2018-02-23T15:01:23.570Z,28.50
2018-02-23T15:03:51.848Z,28.40
2018-02-23T15:06:20.169Z,28.10
2018-02-23T15:08:48.453Z,28.60
2018-02-23T15:11:16.690Z,28.80
2018-02-23T15:13:44.989Z,29.20
2018-02-23T15:16:13.220Z,29.10
2018-02-23T15:18:41.539Z,29.60
2018-02-23T15:21:09.757Z,29.60
2018-02-23T15:23:38.855Z,30.00
2018-02-23T15:26:07.851Z,29.90
2018-02-23T15:28:36.851Z,30.60
2018-02-23T15:31:16.984Z,30.60
2018-02-23T15:33:45.992Z,30.20
2018-02-23T15:36:15.002Z,30.50
2018-02-23T15:38:43.267Z,30.50
2018-02-23T15:41:12.288Z,30.90
2018-02-23T15:43:40.568Z,30.90
2018-02-23T15:46:08.845Z,31.30
2018-02-23T15:51:54.294Z,31.00
2018-02-23T15:54:22.613Z,31.10
2018-02-23T15:56:50.846Z,31.40
2018-02-23T15:59:19.124Z,31.60
2018-02-23T16:01:47.405Z,31.70
2018-02-23T16:04:15.686Z,32.50
2018-02-23T16:06:44.772Z,31.80
2018-02-23T16:09:13.017Z,31.70
2018-02-23T16:11:41.326Z,31.90
2018-02-23T16:14:09.626Z,31.90
2018-02-23T16:16:38.716Z,31.90
2018-02-23T16:19:07.734Z,31.80
2018-02-23T16:21:35.983Z,31.80
2018-02-23T16:24:04.275Z,32.00
2018-02-23T16:26:33.281Z,32.50
2018-02-23T16:29:01.586Z,32.40
2018-02-23T16:31:29.869Z,32.70
2018-02-23T16:33:58.185Z,32.80
2018-02-23T16:36:26.426Z,32.60
2018-02-23T16:38:54.671Z,32.80
2018-02-23T16:41:22.919Z,32.80
2018-02-23T16:43:51.925Z,32.80
2018-02-23T16:46:20.225Z,32.80
2018-02-23T16:48:48.481Z,32.90
2018-02-23T16:51:16.742Z,33.10
2018-02-23T16:53:45.795Z,33.30
2018-02-23T16:56:14.077Z,33.20
2018-02-23T16:58:42.368Z,33.30
2018-02-23T17:01:10.605Z,33.40
2018-02-23T17:03:38.886Z,33.50
2018-02-23T17:06:07.185Z,33.40
2018-02-23T17:08:35.466Z,33.40
2018-02-23T17:11:04.464Z,33.50
2018-02-23T17:13:32.760Z,33.50
2018-02-23T17:16:01.026Z,33.50
2018-02-23T17:18:30.126Z,33.50
2018-02-23T17:20:59.319Z,34.10
2018-02-23T17:23:27.608Z,33.60
2018-02-23T17:25:55.931Z,33.60
2018-02-23T17:28:24.220Z,33.60
2018-02-23T17:30:52.484Z,33.50
2018-02-23T17:33:20.781Z,33.70
2018-02-23T17:35:49.024Z,33.70
2018-02-23T17:38:17.356Z,33.90
2018-02-23T17:40:45.873Z,34.00
2018-02-23T17:43:14.972Z,34.20
2018-02-23T17:45:44.070Z,34.20
2018-02-23T17:48:13.073Z,34.30
2018-02-23T17:50:41.373Z,34.30
2018-02-23T17:53:09.608Z,34.30
2018-02-23T17:55:38.698Z,34.50
2018-02-23T17:58:06.993Z,34.50
2018-02-23T18:00:35.989Z,34.50
2018-02-23T18:03:05.041Z,34.40
2018-02-23T18:05:33.286Z,34.40
2018-02-23T18:08:01.648Z,34.60
2018-02-23T18:10:29.973Z,34.50
2018-02-23T18:12:58.248Z,34.50
2018-02-23T18:15:26.500Z,34.60
2018-02-23T18:17:54.789Z,34.60
2018-02-23T18:20:23.098Z,34.80
2018-02-23T18:22:51.370Z,34.70
2018-02-23T18:25:19.694Z,34.70
2018-02-23T18:27:47.961Z,34.80
2018-02-23T18:30:16.978Z,35.00
2018-02-23T18:32:45.275Z,35.00
2018-02-23T18:35:13.600Z,35.00
2018-02-23T18:37:41.886Z,35.00
2018-02-23T18:40:11.021Z,35.20
2018-02-23T18:42:39.328Z,35.20
2018-02-23T18:45:07.621Z,35.20
2018-02-23T18:47:35.892Z,35.40
2018-02-23T18:50:04.790Z,35.80
2018-02-23T18:52:33.094Z,35.30
2018-02-23T18:55:01.383Z,36.10
2018-02-23T18:57:35.718Z,35.50
2018-02-23T19:00:03.883Z,35.70
2018-02-23T19:02:34.099Z,35.50
2018-02-23T19:05:02.344Z,35.60
2018-02-23T19:07:31.410Z,35.70
2018-02-23T19:10:00.405Z,35.80
2018-02-23T19:12:28.731Z,36.40
2018-02-23T19:14:57.007Z,35.70
2018-02-23T19:17:25.306Z,35.70
2018-02-23T19:19:53.607Z,35.80
2018-02-23T19:22:21.836Z,35.60
2018-02-23T19:24:50.140Z,35.90
2018-02-23T19:27:18.437Z,36.00
2018-02-23T19:29:47.739Z,36.00
2018-02-23T19:32:16.023Z,36.00
2018-02-23T19:34:44.286Z,36.20
2018-02-23T19:37:12.526Z,36.10
2018-02-23T19:39:41.733Z,35.90
2018-02-23T19:42:10.033Z,36.20
2018-02-23T19:44:38.307Z,36.00
2018-02-23T19:47:06.614Z,36.30
2018-02-23T19:49:34.899Z,36.20
2018-02-23T19:52:03.132Z,36.10
2018-02-23T19:54:31.392Z,36.20
2018-02-23T19:56:59.671Z,36.30
2018-02-23T19:59:27.990Z,36.30
2018-02-23T20:01:56.248Z,36.40
2018-02-23T20:04:25.378Z,36.30
2018-02-23T20:06:53.673Z,36.60
2018-02-23T20:09:21.956Z,36.60
2018-02-23T20:11:50.968Z,36.60
2018-02-23T20:14:20.681Z,37.40
2018-02-23T20:16:48.967Z,36.70
2018-02-23T20:19:17.250Z,36.80
2018-02-23T20:21:45.488Z,36.80
2018-02-23T20:24:14.524Z,36.90
2018-02-23T20:26:42.759Z,37.50
2018-02-23T20:29:11.779Z,36.80
2018-02-23T20:31:40.028Z,36.70
2018-02-23T20:34:08.368Z,37.00
2018-02-23T20:36:36.648Z,36.90
2018-02-23T20:39:04.900Z,37.00
2018-02-23T20:41:33.159Z,37.10
2018-02-23T20:44:01.401Z,37.10
2018-02-23T20:46:29.661Z,37.40
2018-02-23T20:48:57.903Z,37.10
2018-02-23T20:51:26.227Z,37.50
2018-02-23T20:53:54.436Z,37.20
2018-02-23T20:56:22.688Z,37.10
2018-02-23T20:58:50.972Z,37.10
2018-02-23T21:01:20.052Z,37.10
2018-02-23T21:03:48.345Z,37.10
2018-02-23T21:06:16.657Z,37.00
2018-02-23T21:08:45.001Z,37.10
2018-02-23T21:11:13.277Z,37.20
2018-02-23T21:13:42.238Z,37.80
2018-02-23T21:16:10.488Z,37.10
2018-02-23T21:18:38.770Z,37.10
2018-02-23T21:21:07.026Z,37.20
2018-02-23T21:23:35.318Z,37.20
2018-02-23T21:26:03.627Z,37.10
2018-02-23T21:28:31.874Z,37.50
2018-02-23T21:31:00.192Z,37.60
2018-02-23T21:33:28.489Z,37.50
2018-02-23T21:35:56.727Z,37.60
2018-02-23T21:38:24.987Z,37.50
2018-02-23T21:40:53.230Z,37.50
2018-02-23T21:43:22.293Z,37.60
2018-02-23T21:45:50.525Z,37.60
2018-02-23T21:48:18.806Z,37.80
2018-02-23T21:50:47.062Z,37.80
2018-02-23T21:53:16.063Z,37.60
2018-02-23T21:55:44.314Z,37.60
2018-02-23T21:58:13.370Z,37.30
2018-02-23T22:00:41.662Z,38.30
2018-02-23T22:03:09.944Z,37.80
2018-02-23T22:05:38.228Z,37.90
2018-02-23T22:08:06.511Z,37.80
2018-02-23T22:10:34.738Z,37.90
2018-02-23T22:13:03.052Z,38.00
2018-02-23T22:15:31.322Z,38.20
2018-02-23T22:17:59.679Z,38.10
2018-02-23T22:20:27.960Z,38.00
2018-02-23T22:22:56.204Z,38.20
2018-02-23T22:25:24.514Z,38.40
2018-02-23T22:27:52.766Z,38.20
2018-02-23T22:30:21.119Z,38.30
2018-02-23T22:32:49.354Z,39.10
2018-02-23T22:35:17.692Z,38.30
2018-02-23T22:37:45.981Z,38.50
2018-02-23T22:40:14.228Z,38.00
2018-02-23T22:42:43.649Z,38.50
2018-02-23T22:45:12.699Z,38.40
2018-02-23T22:47:40.976Z,38.40
2018-02-23T22:50:09.318Z,38.40
2018-02-23T22:52:37.592Z,38.50
2018-02-23T22:55:05.890Z,38.60
2018-02-23T22:57:34.132Z,38.70
2018-02-23T23:00:02.423Z,39.00
2018-02-23T23:02:30.682Z,38.60
2018-02-23T23:04:59.696Z,38.80
2018-02-23T23:07:27.974Z,38.70
2018-02-23T23:09:56.240Z,38.80
2018-02-23T23:12:24.543Z,39.10
2018-02-23T23:14:52.801Z,39.00
2018-02-23T23:17:21.103Z,39.20
2018-02-23T23:19:49.338Z,38.90
2018-02-23T23:22:18.232Z,39.20
2018-02-23T23:24:47.245Z,39.40
2018-02-23T23:27:15.477Z,39.30
2018-02-23T23:29:44.554Z,39.00
2018-02-23T23:32:12.812Z,38.90
2018-02-23T23:34:41.072Z,39.10
2018-02-23T23:37:09.356Z,39.60
2018-02-23T23:39:39.599Z,39.20
2018-02-23T23:42:07.928Z,39.60
2018-02-23T23:44:36.978Z,39.40
2018-02-23T23:47:05.338Z,39.30
2018-02-23T23:49:33.566Z,39.40
2018-02-23T23:52:02.587Z,39.40
2018-02-23T23:54:30.862Z,39.30
2018-02-23T23:57:00.039Z,40.20
2018-02-23T23:59:29.065Z,39.80
